sensor_id;sensor_type;location;lat;lon;timestamp;pressure;altitude;pressure_sealevel;temperature;humidity
57290;BME280;43523;53.022;-1.178;2023-04-21T00:00:32;101270.97;;;4.56;100.00
57290;BME280;43523;53.022;-1.178;2023-04-21T00:01:34;101270.57;;;4.62;100.00
57290;BME280;43523;53.022;-1.178;2023-04-21T00:02:36;101271.47;;;4.79;100.00
57290;BME280;43523;53.022;-1.178;2023-04-21T00:03:38;101270.58;;;4.63;100.00
57290;BME280;43523;53.022;-1.178;2023-04-21T00:04:41;101264.28;;;4.48;100.00
57290;BME280;43523;53.022;-1.178;2023-04-21T00:05:44;101263.24;;;3.99;100.00
57290;BME280;43523;53.022;-1.178;2023-04-21T00:06:47;101266.06;;;4.60;100.00
57290;BME280;43523;53.022;-1.178;2023-04-21T00:07:49;101265.25;;;4.57;100.00
57290;BME280;43523;53.022;-1.178;2023-04-21T00:08:52;101261.61;;;4.84;100.00
57290;BME280;43523;53.022;-1.178;2023-04-21T00:09:54;101266.42;;;4.92;100.00
57290;BME280;43523;53.022;-1.178;2023-04-21T00:10:56;101265.37;;;4.74;100.00
57290;BME280;43523;53.022;-1.178;2023-04-21T00:11:59;101265.59;;;4.73;100.00
57290;BME280;43523;53.022;-1.178;2023-04-21T00:13:02;101263.21;;;4.91;100.00
57290;BME280;43523;53.022;-1.178;2023-04-21T00:14:04;101265.52;;;4.93;100.00
57290;BME280;43523;53.022;-1.178;2023-04-21T00:15:07;101266.83;;;4.88;100.00
57290;BME280;43523;53.022;-1.178;2023-04-21T00:16:15;101264.13;;;4.81;100.00
57290;BME280;43523;53.022;-1.178;2023-04-21T00:17:17;101261.69;;;5.13;100.00
57290;BME280;43523;53.022;-1.178;2023-04-21T00:18:20;101256.48;;;5.04;100.00
57290;BME280;43523;53.022;-1.178;2023-04-21T00:19:22;101258.75;;;4.78;100.00
57290;BME280;43523;53.022;-1.178;2023-04-21T00:20:25;101260.20;;;4.36;100.00
57290;BME280;43523;53.022;-1.178;2023-04-21T00:21:27;101261.42;;;4.85;100.00
57290;BME280;43523;53.022;-1.178;2023-04-21T00:22:30;101254.59;;;4.61;100.00
57290;BME280;43523;53.022;-1.178;2023-04-21T00:23:33;101255.74;;;4.53;100.00
57290;BME280;43523;53.022;-1.178;2023-04-21T00:24:35;101254.72;;;4.79;100.00
57290;BME280;43523;53.022;-1.178;2023-04-21T00:25:37;101250.45;;;4.70;100.00
57290;BME280;43523;53.022;-1.178;2023-04-21T00:26:39;101250.29;;;4.62;100.00
57290;BME280;43523;53.022;-1.178;2023-04-21T00:27:41;101245.32;;;4.86;100.00
57290;BME280;43523;53.022;-1.178;2023-04-21T00:28:44;101244.99;;;4.83;100.00
57290;BME280;43523;53.022;-1.178;2023-04-21T00:29:46;101245.33;;;4.30;100.00
57290;BME280;43523;53.022;-1.178;2023-04-21T00:30:49;101245.25;;;4.57;100.00
57290;BME280;43523;53.022;-1.178;2023-04-21T00:31:51;101245.53;;;4.47;100.00
57290;BME280;43523;53.022;-1.178;2023-04-21T00:32:53;101240.47;;;4.53;100.00
57290;BME280;43523;53.022;-1.178;2023-04-21T00:33:55;101233.44;;;4.77;100.00
57290;BME280;43523;53.022;-1.178;2023-04-21T00:34:58;101232.98;;;4.60;100.00
57290;BME280;43523;53.022;-1.178;2023-04-21T00:36:07;101232.37;;;4.71;100.00
57290;BME280;43523;53.022;-1.178;2023-04-21T00:37:09;101235.06;;;4.85;100.00
57290;BME280;43523;53.022;-1.178;2023-04-21T00:38:12;101235.23;;;4.84;100.00
57290;BME280;43523;53.022;-1.178;2023-04-21T00:39:14;101237.18;;;4.71;100.00
57290;BME280;43523;53.022;-1.178;2023-04-21T00:40:17;101238.47;;;4.51;100.00
57290;BME280;43523;53.022;-1.178;2023-04-21T00:41:20;101238.07;;;4.45;100.00
57290;BME280;43523;53.022;-1.178;2023-04-21T00:42:22;101236.06;;;4.76;100.00
57290;BME280;43523;53.022;-1.178;2023-04-21T00:43:24;101238.04;;;4.84;100.00
57290;BME280;43523;53.022;-1.178;2023-04-21T00:44:26;101235.05;;;4.18;100.00
57290;BME280;43523;53.022;-1.178;2023-04-21T00:45:30;101236.05;;;4.71;100.00
57290;BME280;43523;53.022;-1.178;2023-04-21T00:46:32;101235.59;;;4.44;100.00
57290;BME280;43523;53.022;-1.178;2023-04-21T00:47:34;101236.67;;;4.89;100.00
57290;BME280;43523;53.022;-1.178;2023-04-21T00:48:37;101236.38;;;4.53;100.00
57290;BME280;43523;53.022;-1.178;2023-04-21T00:49:39;101233.69;;;4.65;100.00
57290;BME280;43523;53.022;-1.178;2023-04-21T00:50:43;101237.76;;;4.62;100.00
57290;BME280;43523;53.022;-1.178;2023-04-21T00:51:45;101238.53;;;4.61;100.00
57290;BME280;43523;53.022;-1.178;2023-04-21T00:52:48;101240.00;;;4.66;100.00
57290;BME280;43523;53.022;-1.178;2023-04-21T00:53:50;101239.55;;;4.42;100.00
57290;BME280;43523;53.022;-1.178;2023-04-21T00:54:53;101241.98;;;4.70;100.00
57290;BME280;43523;53.022;-1.178;2023-04-21T00:55:55;101236.44;;;4.43;100.00
57290;BME280;43523;53.022;-1.178;2023-04-21T00:56:58;101232.51;;;4.48;100.00
57290;BME280;43523;53.022;-1.178;2023-04-21T00:58:02;101228.10;;;4.47;100.00
57290;BME280;43523;53.022;-1.178;2023-04-21T00:59:04;101223.97;;;4.84;100.00
57290;BME280;43523;53.022;-1.178;2023-04-21T01:00:08;101223.32;;;4.62;100.00
57290;BME280;43523;53.022;-1.178;2023-04-21T01:01:10;101223.66;;;4.93;100.00
57290;BME280;43523;53.022;-1.178;2023-04-21T01:02:14;101224.23;;;4.95;100.00
57290;BME280;43523;53.022;-1.178;2023-04-21T01:03:17;101230.54;;;4.61;100.00
57290;BME280;43523;53.022;-1.178;2023-04-21T01:04:19;101233.65;;;4.72;100.00
57290;BME280;43523;53.022;-1.178;2023-04-21T01:05:22;101234.30;;;4.34;100.00
57290;BME280;43523;53.022;-1.178;2023-04-21T01:06:27;101233.88;;;4.52;100.00
57290;BME280;43523;53.022;-1.178;2023-04-21T01:07:30;101234.16;;;4.79;100.00
57290;BME280;43523;53.022;-1.178;2023-04-21T01:08:34;101232.00;;;4.84;100.00
57290;BME280;43523;53.022;-1.178;2023-04-21T01:09:36;101235.27;;;4.64;100.00
57290;BME280;43523;53.022;-1.178;2023-04-21T01:10:38;101235.18;;;4.95;100.00
57290;BME280;43523;53.022;-1.178;2023-04-21T01:11:41;101239.15;;;4.38;100.00
57290;BME280;43523;53.022;-1.178;2023-04-21T01:12:45;101236.71;;;4.43;100.00
57290;BME280;43523;53.022;-1.178;2023-04-21T01:13:51;101233.68;;;4.72;100.00
57290;BME280;43523;53.022;-1.178;2023-04-21T01:14:53;101229.61;;;4.52;100.00
57290;BME280;43523;53.022;-1.178;2023-04-21T01:15:56;101230.32;;;5.08;100.00
57290;BME280;43523;53.022;-1.178;2023-04-21T01:16:58;101231.39;;;4.81;100.00
57290;BME280;43523;53.022;-1.178;2023-04-21T01:18:00;101226.65;;;4.82;100.00
57290;BME280;43523;53.022;-1.178;2023-04-21T01:19:02;101228.89;;;4.70;100.00
57290;BME280;43523;53.022;-1.178;2023-04-21T01:20:08;101227.59;;;4.73;100.00
57290;BME280;43523;53.022;-1.178;2023-04-21T01:21:11;101223.78;;;4.69;100.00
57290;BME280;43523;53.022;-1.178;2023-04-21T01:22:14;101226.48;;;4.87;100.00
57290;BME280;43523;53.022;-1.178;2023-04-21T01:23:16;101223.09;;;5.00;100.00
57290;BME280;43523;53.022;-1.178;2023-04-21T01:24:19;101219.82;;;4.64;100.00
57290;BME280;43523;53.022;-1.178;2023-04-21T01:25:21;101219.45;;;4.84;100.00
57290;BME280;43523;53.022;-1.178;2023-04-21T01:26:24;101214.57;;;4.47;100.00
57290;BME280;43523;53.022;-1.178;2023-04-21T01:27:26;101212.14;;;4.91;100.00
57290;BME280;43523;53.022;-1.178;2023-04-21T01:28:29;101215.26;;;4.34;100.00
57290;BME280;43523;53.022;-1.178;2023-04-21T01:29:32;101212.98;;;4.18;100.00
57290;BME280;43523;53.022;-1.178;2023-04-21T01:30:35;101207.70;;;4.32;100.00
57290;BME280;43523;53.022;-1.178;2023-04-21T01:31:37;101208.59;;;4.38;100.00
57290;BME280;43523;53.022;-1.178;2023-04-21T01:32:39;101207.73;;;4.47;100.00
57290;BME280;43523;53.022;-1.178;2023-04-21T01:33:41;101205.80;;;4.48;100.00
57290;BME280;43523;53.022;-1.178;2023-04-21T01:34:44;101200.82;;;4.46;100.00
57290;BME280;43523;53.022;-1.178;2023-04-21T01:35:46;101195.66;;;3.86;100.00
57290;BME280;43523;53.022;-1.178;2023-04-21T01:36:49;101193.06;;;4.22;100.00
57290;BME280;43523;53.022;-1.178;2023-04-21T01:37:50;101190.60;;;4.52;100.00
57290;BME280;43523;53.022;-1.178;2023-04-21T01:38:52;101192.65;;;4.16;100.00
57290;BME280;43523;53.022;-1.178;2023-04-21T01:39:57;101191.35;;;4.05;100.00
57290;BME280;43523;53.022;-1.178;2023-04-21T01:40:59;101187.93;;;4.11;100.00
57290;BME280;43523;53.022;-1.178;2023-04-21T01:42:02;101186.52;;;3.77;100.00
57290;BME280;43523;53.022;-1.178;2023-04-21T01:43:04;101188.12;;;4.13;100.00
57290;BME280;43523;53.022;-1.178;2023-04-21T01:44:06;101186.38;;;4.11;100.00
57290;BME280;43523;53.022;-1.178;2023-04-21T01:45:09;101184.72;;;4.09;100.00
57290;BME280;43523;53.022;-1.178;2023-04-21T01:46:12;101181.48;;;4.17;100.00
57290;BME280;43523;53.022;-1.178;2023-04-21T01:47:14;101178.09;;;4.04;100.00
57290;BME280;43523;53.022;-1.178;2023-04-21T01:48:17;101175.49;;;4.34;100.00
57290;BME280;43523;53.022;-1.178;2023-04-21T01:49:20;101171.42;;;4.45;100.00
57290;BME280;43523;53.022;-1.178;2023-04-21T01:50:23;101162.11;;;4.36;100.00
57290;BME280;43523;53.022;-1.178;2023-04-21T01:51:25;101161.79;;;4.16;100.00
57290;BME280;43523;53.022;-1.178;2023-04-21T01:52:27;101160.87;;;4.40;100.00
57290;BME280;43523;53.022;-1.178;2023-04-21T01:53:30;101161.21;;;4.35;100.00
57290;BME280;43523;53.022;-1.178;2023-04-21T01:54:32;101160.31;;;4.10;100.00
57290;BME280;43523;53.022;-1.178;2023-04-21T01:55:34;101159.54;;;4.33;100.00
57290;BME280;43523;53.022;-1.178;2023-04-21T01:56:36;101157.91;;;4.21;100.00
57290;BME280;43523;53.022;-1.178;2023-04-21T01:57:39;101162.45;;;4.26;100.00
57290;BME280;43523;53.022;-1.178;2023-04-21T01:58:41;101163.53;;;4.30;100.00
57290;BME280;43523;53.022;-1.178;2023-04-21T01:59:44;101159.26;;;4.32;100.00
57290;BME280;43523;53.022;-1.178;2023-04-21T02:00:46;101151.59;;;4.04;100.00
57290;BME280;43523;53.022;-1.178;2023-04-21T02:01:49;101152.96;;;4.42;100.00
57290;BME280;43523;53.022;-1.178;2023-04-21T02:02:51;101156.30;;;4.43;100.00
57290;BME280;43523;53.022;-1.178;2023-04-21T02:03:54;101152.10;;;4.18;100.00
57290;BME280;43523;53.022;-1.178;2023-04-21T02:04:56;101150.28;;;4.34;100.00
57290;BME280;43523;53.022;-1.178;2023-04-21T02:05:59;101147.27;;;4.46;100.00
57290;BME280;43523;53.022;-1.178;2023-04-21T02:07:01;101143.59;;;4.12;100.00
57290;BME280;43523;53.022;-1.178;2023-04-21T02:08:05;101141.68;;;4.10;100.00
57290;BME280;43523;53.022;-1.178;2023-04-21T02:09:07;101136.40;;;4.59;100.00
57290;BME280;43523;53.022;-1.178;2023-04-21T02:10:10;101144.01;;;4.27;100.00
57290;BME280;43523;53.022;-1.178;2023-04-21T02:11:12;101137.94;;;4.37;100.00
57290;BME280;43523;53.022;-1.178;2023-04-21T02:12:14;101140.04;;;4.44;100.00
57290;BME280;43523;53.022;-1.178;2023-04-21T02:13:16;101139.82;;;4.29;100.00
57290;BME280;43523;53.022;-1.178;2023-04-21T02:14:19;101136.58;;;4.21;100.00
57290;BME280;43523;53.022;-1.178;2023-04-21T02:15:21;101132.44;;;4.05;100.00
57290;BME280;43523;53.022;-1.178;2023-04-21T02:16:24;101129.53;;;4.30;100.00
57290;BME280;43523;53.022;-1.178;2023-04-21T02:17:26;101131.44;;;4.23;100.00
57290;BME280;43523;53.022;-1.178;2023-04-21T02:18:28;101130.07;;;4.33;100.00
57290;BME280;43523;53.022;-1.178;2023-04-21T02:19:31;101134.13;;;4.13;100.00
57290;BME280;43523;53.022;-1.178;2023-04-21T02:20:34;101137.25;;;4.52;100.00
57290;BME280;43523;53.022;-1.178;2023-04-21T02:21:36;101141.08;;;4.02;100.00
57290;BME280;43523;53.022;-1.178;2023-04-21T02:22:39;101139.35;;;4.29;100.00
57290;BME280;43523;53.022;-1.178;2023-04-21T02:23:41;101141.78;;;4.70;100.00
57290;BME280;43523;53.022;-1.178;2023-04-21T02:24:44;101139.68;;;4.04;100.00
57290;BME280;43523;53.022;-1.178;2023-04-21T02:25:46;101134.39;;;3.86;100.00
57290;BME280;43523;53.022;-1.178;2023-04-21T02:26:48;101133.37;;;4.19;100.00
57290;BME280;43523;53.022;-1.178;2023-04-21T02:27:50;101126.30;;;4.15;100.00
57290;BME280;43523;53.022;-1.178;2023-04-21T02:28:52;101125.13;;;4.23;100.00
57290;BME280;43523;53.022;-1.178;2023-04-21T02:29:55;101126.16;;;4.19;100.00
57290;BME280;43523;53.022;-1.178;2023-04-21T02:30:57;101132.89;;;4.14;100.00
57290;BME280;43523;53.022;-1.178;2023-04-21T02:32:00;101134.02;;;4.51;100.00
57290;BME280;43523;53.022;-1.178;2023-04-21T02:33:02;101135.86;;;4.01;100.00
57290;BME280;43523;53.022;-1.178;2023-04-21T02:34:05;101130.01;;;4.53;100.00
57290;BME280;43523;53.022;-1.178;2023-04-21T02:35:08;101127.20;;;4.32;100.00
57290;BME280;43523;53.022;-1.178;2023-04-21T02:36:11;101127.94;;;4.27;100.00
57290;BME280;43523;53.022;-1.178;2023-04-21T02:37:14;101128.59;;;3.93;100.00
57290;BME280;43523;53.022;-1.178;2023-04-21T02:38:16;101124.90;;;4.38;100.00
57290;BME280;43523;53.022;-1.178;2023-04-21T02:39:24;101129.40;;;4.14;100.00
57290;BME280;43523;53.022;-1.178;2023-04-21T02:40:26;101124.03;;;4.08;100.00
57290;BME280;43523;53.022;-1.178;2023-04-21T02:41:30;101123.36;;;4.16;100.00
57290;BME280;43523;53.022;-1.178;2023-04-21T02:42:33;101118.51;;;4.35;100.00
57290;BME280;43523;53.022;-1.178;2023-04-21T02:43:35;101116.47;;;4.39;100.00
57290;BME280;43523;53.022;-1.178;2023-04-21T02:44:37;101113.53;;;3.95;100.00
57290;BME280;43523;53.022;-1.178;2023-04-21T02:45:39;101112.06;;;4.21;100.00
57290;BME280;43523;53.022;-1.178;2023-04-21T02:46:43;101111.02;;;4.46;100.00
57290;BME280;43523;53.022;-1.178;2023-04-21T02:47:45;101111.40;;;4.16;100.00
57290;BME280;43523;53.022;-1.178;2023-04-21T02:48:47;101106.58;;;4.39;100.00
57290;BME280;43523;53.022;-1.178;2023-04-21T02:49:49;101110.42;;;3.93;100.00
57290;BME280;43523;53.022;-1.178;2023-04-21T02:50:51;101108.88;;;3.96;100.00
57290;BME280;43523;53.022;-1.178;2023-04-21T02:51:54;101114.17;;;3.92;100.00
57290;BME280;43523;53.022;-1.178;2023-04-21T02:52:56;101114.81;;;4.13;100.00
57290;BME280;43523;53.022;-1.178;2023-04-21T02:53:58;101108.24;;;4.16;100.00
57290;BME280;43523;53.022;-1.178;2023-04-21T02:55:00;101108.15;;;4.28;100.00
57290;BME280;43523;53.022;-1.178;2023-04-21T02:56:02;101104.95;;;4.21;100.00
57290;BME280;43523;53.022;-1.178;2023-04-21T02:57:04;101108.47;;;4.50;100.00
57290;BME280;43523;53.022;-1.178;2023-04-21T02:58:06;101111.30;;;4.15;100.00
57290;BME280;43523;53.022;-1.178;2023-04-21T02:59:08;101112.95;;;3.90;100.00
57290;BME280;43523;53.022;-1.178;2023-04-21T03:00:11;101111.24;;;3.81;100.00
57290;BME280;43523;53.022;-1.178;2023-04-21T03:01:15;101107.07;;;4.30;100.00
57290;BME280;43523;53.022;-1.178;2023-04-21T03:02:17;101103.83;;;4.10;100.00
57290;BME280;43523;53.022;-1.178;2023-04-21T03:03:20;101107.15;;;4.43;100.00
57290;BME280;43523;53.022;-1.178;2023-04-21T03:04:22;101104.77;;;4.48;100.00
57290;BME280;43523;53.022;-1.178;2023-04-21T03:05:24;101103.89;;;4.15;100.00
57290;BME280;43523;53.022;-1.178;2023-04-21T03:06:27;101105.27;;;4.39;100.00
57290;BME280;43523;53.022;-1.178;2023-04-21T03:07:29;101104.02;;;4.36;100.00
57290;BME280;43523;53.022;-1.178;2023-04-21T03:08:32;101101.58;;;4.07;100.00
57290;BME280;43523;53.022;-1.178;2023-04-21T03:09:34;101103.53;;;4.31;100.00
57290;BME280;43523;53.022;-1.178;2023-04-21T03:10:37;101098.96;;;4.15;100.00
57290;BME280;43523;53.022;-1.178;2023-04-21T03:11:39;101103.25;;;4.34;100.00
57290;BME280;43523;53.022;-1.178;2023-04-21T03:12:41;101107.72;;;4.01;100.00
57290;BME280;43523;53.022;-1.178;2023-04-21T03:13:44;101103.61;;;4.11;100.00
57290;BME280;43523;53.022;-1.178;2023-04-21T03:14:46;101101.05;;;4.10;100.00
57290;BME280;43523;53.022;-1.178;2023-04-21T03:15:49;101104.53;;;4.39;100.00
57290;BME280;43523;53.022;-1.178;2023-04-21T03:16:51;101102.57;;;4.43;100.00
57290;BME280;43523;53.022;-1.178;2023-04-21T03:17:53;101102.88;;;4.31;100.00
57290;BME280;43523;53.022;-1.178;2023-04-21T03:18:55;101097.42;;;4.57;100.00
57290;BME280;43523;53.022;-1.178;2023-04-21T03:19:58;101095.13;;;4.45;100.00
57290;BME280;43523;53.022;-1.178;2023-04-21T03:21:01;101086.46;;;4.46;100.00
57290;BME280;43523;53.022;-1.178;2023-04-21T03:22:03;101089.01;;;4.28;100.00
57290;BME280;43523;53.022;-1.178;2023-04-21T03:23:05;101085.06;;;4.57;100.00
57290;BME280;43523;53.022;-1.178;2023-04-21T03:24:08;101083.10;;;4.56;100.00
57290;BME280;43523;53.022;-1.178;2023-04-21T03:25:10;101081.69;;;4.68;100.00
57290;BME280;43523;53.022;-1.178;2023-04-21T03:26:12;101081.02;;;3.84;100.00
57290;BME280;43523;53.022;-1.178;2023-04-21T03:27:14;101082.75;;;4.20;100.00
57290;BME280;43523;53.022;-1.178;2023-04-21T03:28:17;101076.59;;;3.74;100.00
57290;BME280;43523;53.022;-1.178;2023-04-21T03:29:19;101076.11;;;4.08;100.00
57290;BME280;43523;53.022;-1.178;2023-04-21T03:30:21;101073.94;;;4.28;100.00
57290;BME280;43523;53.022;-1.178;2023-04-21T03:31:24;101066.29;;;4.68;100.00
57290;BME280;43523;53.022;-1.178;2023-04-21T03:32:26;101062.24;;;4.76;100.00
57290;BME280;43523;53.022;-1.178;2023-04-21T03:33:29;101056.09;;;4.16;100.00
57290;BME280;43523;53.022;-1.178;2023-04-21T03:34:31;101051.17;;;4.54;100.00
57290;BME280;43523;53.022;-1.178;2023-04-21T03:35:33;101053.32;;;4.85;100.00
57290;BME280;43523;53.022;-1.178;2023-04-21T03:36:36;101050.50;;;5.03;100.00
57290;BME280;43523;53.022;-1.178;2023-04-21T03:37:38;101046.10;;;4.78;100.00
57290;BME280;43523;53.022;-1.178;2023-04-21T03:38:41;101042.50;;;4.38;100.00
57290;BME280;43523;53.022;-1.178;2023-04-21T03:39:44;101040.84;;;3.96;100.00
57290;BME280;43523;53.022;-1.178;2023-04-21T03:40:46;101032.95;;;4.53;100.00
57290;BME280;43523;53.022;-1.178;2023-04-21T03:41:48;101032.60;;;4.52;100.00
57290;BME280;43523;53.022;-1.178;2023-04-21T03:42:49;101030.14;;;4.72;100.00
57290;BME280;43523;53.022;-1.178;2023-04-21T03:43:52;101026.49;;;4.45;100.00
57290;BME280;43523;53.022;-1.178;2023-04-21T03:44:54;101030.50;;;4.36;100.00
57290;BME280;43523;53.022;-1.178;2023-04-21T03:45:57;101027.38;;;4.46;100.00
57290;BME280;43523;53.022;-1.178;2023-04-21T03:47:00;101024.08;;;4.65;100.00
57290;BME280;43523;53.022;-1.178;2023-04-21T03:48:02;101020.20;;;4.55;100.00
57290;BME280;43523;53.022;-1.178;2023-04-21T03:49:04;101018.53;;;4.55;100.00
57290;BME280;43523;53.022;-1.178;2023-04-21T03:50:07;101015.20;;;4.38;100.00
57290;BME280;43523;53.022;-1.178;2023-04-21T03:51:09;101010.85;;;4.57;100.00
57290;BME280;43523;53.022;-1.178;2023-04-21T03:52:11;101006.72;;;4.67;100.00
57290;BME280;43523;53.022;-1.178;2023-04-21T03:53:14;101002.95;;;4.65;100.00
57290;BME280;43523;53.022;-1.178;2023-04-21T03:54:16;100999.75;;;4.80;100.00
57290;BME280;43523;53.022;-1.178;2023-04-21T03:55:19;100997.39;;;4.71;100.00
57290;BME280;43523;53.022;-1.178;2023-04-21T03:56:21;100988.65;;;4.57;100.00
57290;BME280;43523;53.022;-1.178;2023-04-21T03:57:23;100985.49;;;4.74;100.00
57290;BME280;43523;53.022;-1.178;2023-04-21T03:58:26;100979.38;;;4.82;100.00
57290;BME280;43523;53.022;-1.178;2023-04-21T03:59:29;100975.18;;;4.47;100.00
57290;BME280;43523;53.022;-1.178;2023-04-21T04:00:31;100968.53;;;3.96;100.00
57290;BME280;43523;53.022;-1.178;2023-04-21T04:01:34;100963.61;;;3.55;100.00
57290;BME280;43523;53.022;-1.178;2023-04-21T04:02:36;100961.88;;;3.44;100.00
57290;BME280;43523;53.022;-1.178;2023-04-21T04:03:37;100959.80;;;3.75;100.00
57290;BME280;43523;53.022;-1.178;2023-04-21T04:04:40;100957.12;;;4.23;100.00
57290;BME280;43523;53.022;-1.178;2023-04-21T04:05:43;100951.75;;;4.28;100.00
57290;BME280;43523;53.022;-1.178;2023-04-21T04:06:44;100949.57;;;4.43;100.00
57290;BME280;43523;53.022;-1.178;2023-04-21T04:07:47;100946.77;;;4.47;100.00
57290;BME280;43523;53.022;-1.178;2023-04-21T04:08:49;100945.41;;;4.07;100.00
57290;BME280;43523;53.022;-1.178;2023-04-21T04:09:51;100939.58;;;4.76;100.00
57290;BME280;43523;53.022;-1.178;2023-04-21T04:10:53;100932.30;;;4.79;100.00
57290;BME280;43523;53.022;-1.178;2023-04-21T04:11:55;100929.46;;;4.32;100.00
57290;BME280;43523;53.022;-1.178;2023-04-21T04:12:57;100925.81;;;4.28;100.00
57290;BME280;43523;53.022;-1.178;2023-04-21T04:13:59;100921.62;;;4.22;100.00
57290;BME280;43523;53.022;-1.178;2023-04-21T04:15:02;100907.74;;;4.63;100.00
57290;BME280;43523;53.022;-1.178;2023-04-21T04:16:05;100907.28;;;4.19;100.00
57290;BME280;43523;53.022;-1.178;2023-04-21T04:17:08;100905.12;;;4.07;100.00
57290;BME280;43523;53.022;-1.178;2023-04-21T04:18:10;100900.87;;;4.02;100.00
57290;BME280;43523;53.022;-1.178;2023-04-21T04:19:13;100902.00;;;4.42;100.00
57290;BME280;43523;53.022;-1.178;2023-04-21T04:20:15;100898.58;;;3.90;100.00
57290;BME280;43523;53.022;-1.178;2023-04-21T04:21:17;100893.31;;;3.53;100.00
57290;BME280;43523;53.022;-1.178;2023-04-21T04:22:20;100888.90;;;3.40;100.00
57290;BME280;43523;53.022;-1.178;2023-04-21T04:23:22;100883.11;;;3.35;100.00
57290;BME280;43523;53.022;-1.178;2023-04-21T04:24:24;100878.14;;;3.61;100.00
57290;BME280;43523;53.022;-1.178;2023-04-21T04:25:27;100872.40;;;4.10;100.00
57290;BME280;43523;53.022;-1.178;2023-04-21T04:26:30;100867.10;;;4.24;100.00
57290;BME280;43523;53.022;-1.178;2023-04-21T04:27:33;100868.86;;;4.20;100.00
57290;BME280;43523;53.022;-1.178;2023-04-21T04:28:35;100868.73;;;3.88;100.00
57290;BME280;43523;53.022;-1.178;2023-04-21T04:29:37;100866.66;;;4.26;100.00
57290;BME280;43523;53.022;-1.178;2023-04-21T04:30:40;100868.78;;;4.38;100.00
57290;BME280;43523;53.022;-1.178;2023-04-21T04:31:43;100867.80;;;3.82;100.00
57290;BME280;43523;53.022;-1.178;2023-04-21T04:32:46;100865.44;;;4.05;100.00
57290;BME280;43523;53.022;-1.178;2023-04-21T04:33:48;100866.07;;;3.87;100.00
57290;BME280;43523;53.022;-1.178;2023-04-21T04:34:50;100863.33;;;4.59;100.00
57290;BME280;43523;53.022;-1.178;2023-04-21T04:35:53;100861.89;;;4.23;100.00
57290;BME280;43523;53.022;-1.178;2023-04-21T04:36:54;100866.98;;;4.16;100.00
57290;BME280;43523;53.022;-1.178;2023-04-21T04:37:57;100862.88;;;3.97;100.00
57290;BME280;43523;53.022;-1.178;2023-04-21T04:38:59;100861.27;;;3.91;100.00
57290;BME280;43523;53.022;-1.178;2023-04-21T04:40:02;100852.38;;;4.68;100.00
57290;BME280;43523;53.022;-1.178;2023-04-21T04:41:04;100851.17;;;4.34;100.00
57290;BME280;43523;53.022;-1.178;2023-04-21T04:42:06;100847.48;;;4.56;100.00
57290;BME280;43523;53.022;-1.178;2023-04-21T04:43:08;100849.82;;;4.06;100.00
57290;BME280;43523;53.022;-1.178;2023-04-21T04:44:10;100848.45;;;4.53;100.00
57290;BME280;43523;53.022;-1.178;2023-04-21T04:45:13;100848.14;;;4.65;100.00
57290;BME280;43523;53.022;-1.178;2023-04-21T04:46:15;100848.99;;;4.58;100.00
57290;BME280;43523;53.022;-1.178;2023-04-21T04:47:17;100846.79;;;4.41;100.00
57290;BME280;43523;53.022;-1.178;2023-04-21T04:48:19;100845.76;;;4.30;100.00
57290;BME280;43523;53.022;-1.178;2023-04-21T04:49:21;100842.17;;;4.13;100.00
57290;BME280;43523;53.022;-1.178;2023-04-21T04:50:23;100839.51;;;3.95;100.00
57290;BME280;43523;53.022;-1.178;2023-04-21T04:51:25;100839.06;;;3.92;100.00
57290;BME280;43523;53.022;-1.178;2023-04-21T04:52:28;100838.64;;;4.28;100.00
57290;BME280;43523;53.022;-1.178;2023-04-21T04:53:31;100836.13;;;3.59;100.00
57290;BME280;43523;53.022;-1.178;2023-04-21T04:54:33;100834.39;;;3.83;100.00
57290;BME280;43523;53.022;-1.178;2023-04-21T04:55:35;100833.94;;;4.07;100.00
57290;BME280;43523;53.022;-1.178;2023-04-21T04:56:37;100829.13;;;4.08;100.00
57290;BME280;43523;53.022;-1.178;2023-04-21T04:57:40;100826.15;;;4.54;100.00
57290;BME280;43523;53.022;-1.178;2023-04-21T04:58:43;100823.30;;;4.09;100.00
57290;BME280;43523;53.022;-1.178;2023-04-21T04:59:46;100820.92;;;4.38;100.00
57290;BME280;43523;53.022;-1.178;2023-04-21T05:00:48;100821.85;;;3.40;100.00
57290;BME280;43523;53.022;-1.178;2023-04-21T05:01:50;100811.30;;;4.05;100.00
57290;BME280;43523;53.022;-1.178;2023-04-21T05:02:52;100813.36;;;3.83;100.00
57290;BME280;43523;53.022;-1.178;2023-04-21T05:03:55;100810.80;;;3.69;100.00
57290;BME280;43523;53.022;-1.178;2023-04-21T05:04:57;100813.17;;;3.85;100.00
57290;BME280;43523;53.022;-1.178;2023-04-21T05:06:00;100815.52;;;3.76;100.00
57290;BME280;43523;53.022;-1.178;2023-04-21T05:07:02;100809.25;;;4.09;100.00
57290;BME280;43523;53.022;-1.178;2023-04-21T05:08:05;100808.28;;;3.68;100.00
57290;BME280;43523;53.022;-1.178;2023-04-21T05:09:07;100806.89;;;4.04;100.00
57290;BME280;43523;53.022;-1.178;2023-04-21T05:10:10;100803.86;;;3.63;100.00
57290;BME280;43523;53.022;-1.178;2023-04-21T05:11:12;100799.78;;;3.64;100.00
57290;BME280;43523;53.022;-1.178;2023-04-21T05:12:15;100795.85;;;3.82;100.00
57290;BME280;43523;53.022;-1.178;2023-04-21T05:13:17;100797.34;;;4.04;100.00
57290;BME280;43523;53.022;-1.178;2023-04-21T05:14:20;100798.47;;;4.25;100.00
57290;BME280;43523;53.022;-1.178;2023-04-21T05:15:23;100799.07;;;3.81;100.00
57290;BME280;43523;53.022;-1.178;2023-04-21T05:16:25;100794.30;;;4.17;100.00
57290;BME280;43523;53.022;-1.178;2023-04-21T05:17:27;100793.90;;;4.20;100.00
57290;BME280;43523;53.022;-1.178;2023-04-21T05:18:30;100791.70;;;3.88;100.00
57290;BME280;43523;53.022;-1.178;2023-04-21T05:19:34;100795.92;;;3.74;100.00
57290;BME280;43523;53.022;-1.178;2023-04-21T05:20:40;100786.96;;;3.84;100.00
57290;BME280;43523;53.022;-1.178;2023-04-21T05:21:43;100779.80;;;3.92;100.00
57290;BME280;43523;53.022;-1.178;2023-04-21T05:22:45;100775.75;;;4.23;100.00